Tiempo atmosférico en la estación meteorológica de Tarancón, Cuenca (808 m.)



Fecha
DESCASC
Temp. máxima en grados centígrados (hora)
DESCASC
Temp. mínima en grados centígrados (hora)
DESCASC
Temp. media en grados centígrados
DESCASC
Racha de viento máxima en m/sg (hora)
DESCASC
Velocidad máxima media en intervalos de 10 minutos(hora)
DESCASC
Precipitaciones diarias en mm
DESCASC
Precipitaciones de 00:00 a 06:00 en mm
DESCASC
Precipitaciones de 06:00 a 12:00 en mm
DESCASC
Precipitaciones de 12:00 a 18:00 en mm
DESCASC
Precipitaciones de 18:00 a 24:00 en mm
DESCASC
17-09-2020 28.4 (17:40) 18.7 (04:10) 23.6 18.06 (21:40) 7.5 (02:50) 1.8 0 0 0 1.8
16-09-2020 32.9 (17:00) 18.9 (07:00) 25.9 10.83 (15:50) 5.56 (23:30) 0 0 0 0 0
15-09-2020 31.1 (17:40) 17.4 (08:20) 24.3 9.72 (02:20) 5 (00:20) 0 0 0 0 0
14-09-2020 32.6 (16:40) 17.5 (00:00) 25 12.5 (10:30) 6.67 (12:20) 0 0 0 0 0
13-09-2020 34.1 (18:30) 18.4 (00:00) 26.2 12.78 (10:20) 6.67 (02:40) 0 0 0 0 0
12-09-2020 34.9 (17:30) 19 (00:00) 27 7.78 (04:40) 4.72 (10:00) 0 0 0 0 0
11-09-2020 32.6 (17:10) 17.6 (00:00) 25.1 9.17 (15:40) 4.17 (07:30) 0 0 0 0 0
10-09-2020 30.3 (18:10) 15.4 (00:00) 22.8 9.72 (17:40) 4.17 (17:10) 0 0 0 0 0
09-09-2020 29.2 (18:10) 14.2 (00:00) 21.7 9.72 (02:10) 5 (01:50) 0 0 0 0 0
08-09-2020 28.7 (17:40) 12.9 (00:00) 20.8 10.28 (14:10) 5 (11:20) 0 0 0 0 0
07-09-2020 26.1 (17:10) 12.6 (08:30) 19.4 11.67 (17:30) 6.67 (11:30) 0 0 0 0 0
06-09-2020 34.5 (16:50) 18.5 (00:00) 26.5 13.33 (02:00) 6.39 (00:50) 0 0 0 0 0
05-09-2020 34.9 (17:20) 17.3 (00:00) 26.1 11.11 (23:59) 6.11 (23:40) 0 0 0 0 0
04-09-2020 34 (17:50) 17.4 (00:00) 25.7 11.67 (01:50) 6.39 (01:50) 0 0 0 0 0
03-09-2020 32.7 (18:20) 16.3 (00:00) 24.5 9.72 (07:00) 4.72 (03:00) 0 0 0 0 0
02-09-2020 30.6 (18:30) 14.6 (00:00) 22.6 8.06 (16:10) 3.33 (16:10) 0 0 0 0 0
01-09-2020 27.1 (15:50) 16 (00:00) 21.6 8.33 (15:40) 3.33 (11:40) 0 0 0 0 0
31-08-2020 28.1 (18:20) 11.5 (00:00) 19.8 6.67 (15:20) 3.33 (17:20) 0 0 0 0 0
30-08-2020 24.2 (18:00) 9.1 (00:00) 16.7 10 (10:40) 6.11 (10:50) 0 0 0 0 0
29-08-2020 24.2 (17:10) 13.2 (00:00) 18.7 15.28 (16:10) 6.94 (11:30) 0 0 0 0 0
28-08-2020 34.3 (17:10) 20.8 (00:00) 27.5 13.89 (18:10) 6.11 (18:20) 0 0 0 0 0
27-08-2020 37.7 (17:10) 20.4 (00:00) 29.1 7.78 (15:40) 3.33 (06:00) 0 0 0 0 0
26-08-2020 38 (18:10) 21.7 (00:00) 29.9 8.33 (15:20) 4.17 (17:20) 0 0 0 0 0
25-08-2020 37.4 (17:20) 20.5 (00:00) 29 8.89 (15:30) 5 (05:00) 0 0 0 0 0
24-08-2020 36.2 (17:30) 21.5 (00:00) 28.9 9.17 (05:30) 4.72 (01:40) 0 0 0 0 0
23-08-2020 34.9 (16:50) 18.8 (00:00) 26.9 8.33 (17:30) 3.33 (16:00) 0 0 0 0 0
22-08-2020 34.5 (18:20) 19.8 (00:00) 27.1 9.44 (17:20) 4.17 (16:30) 0 0 0 0 0
21-08-2020 35.3 (17:10) 19.5 (00:00) 27.4 11.67 (18:10) 6.39 (17:10) 0 0 0 0 0
20-08-2020 35.6 (17:10) 19.2 (00:00) 27.4 11.39 (16:50) 6.11 (15:50) 0 0 0 0 0
19-08-2020 34.4 (17:10) 19 (00:00) 26.7 11.11 (16:30) 5 (16:30) 0 0 0 0 0

Gráficas

Temp. máximas Temp. mínimas Temp. medias Precipitaciones Rachas de viento máximas Velocidades máximas media en intervalos de 10 minutos

Datos horarios

Fecha y hora oficial Temperatura (ºC) Velocidad del viento (km/h) Dirección del viento Racha (km/h) Dirección de racha Precipitación (mm) Presión (hPa) Tendencia (hPa) Humedad (%)
2020-09-17 23:00:00 19.4 18 Sudeste 37 Sudeste 1 921.9 1.3 82
2020-09-17 22:00:00 19.9 13 Sur 65 Sur 0.2 921.4 -- 76
2020-09-17 21:00:00 24.5 8 Sudeste 20 Sur 0 920.5 -- 41
2020-09-17 20:00:00 25.2 9 Sur 29 Sur 0 920.6 -- 39
2020-09-17 19:00:00 26.4 11 Sur 32 Sudoeste 0 920.7 -- 36
2020-09-17 18:00:00 26.6 13 Sur 36 Sudoeste 0 921.4 -- 35
2020-09-17 17:00:00 27.5 12 Sur 32 Sudoeste 0 921.8 -- 35
2020-09-17 16:00:00 25.9 18 Sudoeste 37 Sur 0 922.2 -- 41
2020-09-17 15:00:00 24.9 13 Sur 36 Sudoeste 0 922.9 -- 44
2020-09-17 14:00:00 24.9 16 Sur 41 Sudoeste 0 923.1 -- 43
2020-09-17 13:00:00 24.9 17 Sur 40 Sudeste 0 923.2 -- 42
2020-09-17 12:00:00 24.5 14 Sur 36 Sudeste 0 923.5 -- 45
2020-09-17 11:00:00 22.1 17 Sudeste 36 Sudeste 0 923.4 -- 55
2020-09-17 10:00:00 20.4 14 Sudeste 32 Sudeste 0 923.1 -- 62
2020-09-17 09:00:00 19.8 8 Sudeste 19 Este 0 923.3 -- 64
2020-09-17 08:00:00 19.4 8 Este 20 Este 0 923.3 -- 68
2020-09-17 07:00:00 19.2 9 Este 23 Sudeste 0 922.9 -- 70
2020-09-17 06:00:00 19.2 11 Este 17 Sudeste 0 923.3 -- 71
2020-09-17 05:00:00 18.8 7 Sudeste 14 Sur 0 924 -- 77
2020-09-17 04:00:00 18.9 8 Sur 30 Sudoeste 0 924.7 -- 77
2020-09-17 03:00:00 21 22 Sudoeste 47 Sudoeste 0 925.3 -- 55
2020-09-17 02:00:00 23.1 21 Sudeste 40 Sudeste 0 924.1 -- 44
2020-09-17 01:00:00 24.1 21 Sudeste 38 Sudeste 0 923.7 -- 34
2020-09-17 00:00:00 24.7 18 Sudeste 38 Sudeste 0 923.7 -- 31
2020-09-16 23:00:00 25.4 14 Sudeste 29 Sudeste 0 923.8 -- 27
2020-09-16 22:00:00 26.4 10 Sudeste 24 Sur 0 923.6 -- 24
2020-09-16 21:00:00 27.5 9 Sudeste 23 Este 0 923.2 -- 23
2020-09-16 20:00:00 29.2 11 Sudeste 26 Sudeste 0 923.2 -- 23
2020-09-16 19:00:00 30.3 8 Sur 23 Sudoeste 0 923.1 -- 21
2020-09-16 18:00:00 31.9 14 Sur 32 Sudoeste 0 923.3 -- 18
2020-09-16 17:00:00 32.3 11 Sur 24 Sudoeste 0 923.9 -- 19
2020-09-16 16:00:00 31.1 15 Sur 39 Sudoeste 0 924.5 -- 21
2020-09-16 15:00:00 32.2 6 Sudeste 24 Sur 0 925.2 -- 22
2020-09-16 14:00:00 30.4 6 Sudeste 15 Sur 0 926 -- 25
2020-09-16 13:00:00 28.7 6 Sudeste 17 Sudeste 0 926.6 -- 29
2020-09-16 12:00:00 26.2 10 Sudeste 23 Sudeste 0 927 -- 37
2020-09-16 11:00:00 23.2 14 Sudeste 25 Sudeste 0 926.9 -- 47
2020-09-16 10:00:00 21 15 Sudeste 24 Este 0 927.1 -- 54
2020-09-16 09:00:00 19.4 11 Sudeste 21 Sudeste 0 927.1 -- 58
2020-09-16 08:00:00 19.4 10 Este 21 Este 0 926.8 -- 57
2020-09-16 07:00:00 18.9 5 Sudeste 9 Sudeste 0 926.9 -- 59
2020-09-16 06:00:00 19.5 5 Sudeste 13 Sudeste 0 926.9 -- 57
2020-09-16 05:00:00 20.2 3 Sur 18 Sudeste 0 927.2 -- 55
2020-09-16 04:00:00 20.9 11 Sudeste 21 Este 0 927.2 -- 53
2020-09-16 03:00:00 21.1 10 Sudeste 21 Sudeste 0 927.4 -- 52
2020-09-16 02:00:00 21.8 14 Sudeste 23 Sudeste 0 927.6 -- 45
2020-09-16 01:00:00 22.6 5 Sudeste 10 Sudeste 0 927.5 -- 41
2020-09-16 00:00:00 22.9 5 Sudeste 10 Sudeste 0 927.5 -- 40
2020-09-15 23:00:00 23.2 4 Sudeste 5 Sudeste 0 927.6 -- 41
2020-09-15 22:00:00 24.3 2 Sur 5 Sudoeste 0 927.3 -- 39
2020-09-15 21:00:00 25.5 3 Sudoeste 15 Sudoeste 0 926.8 -- 35
2020-09-15 20:00:00 27.1 9 Sudoeste 24 Sudoeste 0 926.7 -- 31
2020-09-15 19:00:00 29.2 10 Sudoeste 19 Sudoeste 0 926.9 -- 26
2020-09-15 18:00:00 29.9 13 Sudoeste 25 Sudoeste 0 927.1 -- 25
2020-09-15 17:00:00 29.9 12 Sudoeste 30 Sur 0 927.3 -- 24
2020-09-15 16:00:00 30 12 Sudoeste 31 Sudoeste 0 927.8 -- 27
2020-09-15 15:00:00 28.1 7 Sur 24 Sudeste 0 928.5 -- 32
2020-09-15 14:00:00 27.9 6 Sudoeste 16 Sudeste 0 928.9 -- 33
2020-09-15 13:00:00 27 6 Sudeste 15 Sudeste 0 929.4 -- 38
2020-09-15 12:00:00 23.9 4 Sudeste 15 Sudeste 0 929.7 -- 47
2020-09-15 11:00:00 22.2 9 Sudeste 19 Sudeste 0 929.7 -- 52
2020-09-15 10:00:00 20.2 11 Sudeste 23 Sudeste 0 929.2 -- 59
2020-09-15 09:00:00 18.5 10 Sudeste 18 Sudeste 0 928.9 -- 65
2020-09-15 08:00:00 17.5 11 Sudeste 21 Sudeste 0 928.3 -- 68
2020-09-15 07:00:00 17.9 12 Sudeste 22 Sudeste 0 928.1 -- 67
2020-09-15 06:00:00 18.4 11 Sudeste 22 Sudeste 0 927.9 -- 64
2020-09-15 05:00:00 19 12 Sudeste 26 Sudeste 0 928.1 -- 65
2020-09-15 04:00:00 19.5 15 Sudeste 30 Sudeste 0 928.2 -- 65
2020-09-15 03:00:00 19.8 13 Sur 35 Sur 0 928.7 -- 67
2020-09-15 02:00:00 20.6 17 Sudeste 34 Sur 0 928.5 -- 60
2020-09-15 01:00:00 21.5 14 Sudeste 33 Este 0 927.8 -- 54
2020-09-15 00:00:00 23.1 16 Sudeste 40 Sudeste 0 928.3 -- 45
2020-09-14 23:00:00 23.9 20 Sudeste 36 Sudeste 0 927.2 -- 43
2020-09-14 22:00:00 24.8 12 Sudeste 28 Sudeste 0 927.8 -- 33
2020-09-14 21:00:00 25.9 12 Sudeste 41 Sudeste 0 927 -- 29
2020-09-14 20:00:00 27.1 17 Sudeste 33 Sudeste 0 926.2 -- 25
2020-09-14 19:00:00 28.5 12 Sur 27 Sur 0 927.5 -- 21
2020-09-14 18:00:00 29.8 14 Sudeste 31 Sudeste 0 927.1 -- 19
2020-09-14 17:00:00 31.6 15 Sudeste 33 Sudeste 0 927.3 -- 19
2020-09-14 16:00:00 31.9 12 Sudeste 36 Sudeste 0 928.1 -- 19
2020-09-14 15:00:00 28.6 15 Sur 37 Sudeste 0 928.8 -- 24
2020-09-14 14:00:00 28.5 21 Sudeste 45 Sudeste 0 929.1 -- 26
2020-09-14 13:00:00 27.3 22 Sudeste 42 Sudeste 0 929.3 -- 29
2020-09-14 12:00:00 25.1 21 Sudeste 44 Sur 0 929.8 -- 35
2020-09-14 11:00:00 22.9 21 Sudeste 45 Sudeste 0 929.6 -- 43
2020-09-14 10:00:00 20.2 18 Sudeste 36 Sudeste 0 929.6 -- 53
2020-09-14 09:00:00 18 16 Sudeste 31 Sudeste 0 929.4 -- 61
2020-09-14 08:00:00 17.5 14 Sudeste 31 Sudeste 0 928.9 -- 64
2020-09-14 07:00:00 18.2 13 Sudeste 33 Sudeste 0 928.9 -- 60
2020-09-14 06:00:00 18.6 20 Sudeste 39 Sudeste 0 928.9 -- 58
2020-09-14 05:00:00 19 22 Sudeste 40 Sudeste 0 929.3 -- 53
2020-09-14 04:00:00 19.7 18 Sudeste 35 Sudeste 0 929.8 -- 51
2020-09-14 03:00:00 20.5 19 Sudeste 40 Sudeste 0 930.1 -- 49
2020-09-14 02:00:00 21.2 21 Sudeste 37 Sudeste 0 930.2 -- 45
2020-09-14 01:00:00 22.1 19 Sudeste 36 Sudeste 0 930.4 -- 41
2020-09-14 00:00:00 23.2 17 Sudeste 32 Sudeste 0 929.9 -- 36
2020-09-13 23:00:00 24.2 12 Sudeste 22 Sudeste 0 929.8 -- 34
2020-09-13 22:00:00 25.4 12 Sudeste 22 Sudeste 0 929.2 -- 30
2020-09-13 21:00:00 27.1 9 Sudeste 21 Sudeste 0 928.5 -- 25
2020-09-13 20:00:00 29 9 Sudeste 33 Sudeste 0 928.3 -- 20
2020-09-13 19:00:00 31.9 15 Sudeste 33 Sudeste 0 928.3 -- 17
2020-09-13 18:00:00 33.2 12 Sudeste 30 Sudeste 0 928.4 -- 15
2020-09-13 17:00:00 33.1 10 Sur 34 Sudeste 0 928.6 -- 15
2020-09-13 16:00:00 33.3 17 Sudeste 35 Sudeste 0 929.1 -- 14
2020-09-13 15:00:00 30.9 16 Sudeste 35 Sudeste 0 929.4 -- 17
2020-09-13 14:00:00 28.6 18 Sudeste 38 Sur 0 929.7 -- 21
2020-09-13 13:00:00 29.4 20 Sudeste 44 Este 0 930 -- 20
2020-09-13 12:00:00 26.7 21 Sudeste 40 Sudeste 0 930.1 -- 28
2020-09-13 11:00:00 23.7 22 Sudeste 46 Sudeste 0 930 -- 38
2020-09-13 10:00:00 21.3 22 Sudeste 42 Sudeste 0 929.5 -- 46
2020-09-13 09:00:00 19.2 20 Sudeste 35 Sudeste 0 929.3 -- 55
2020-09-13 08:00:00 18.5 20 Sudeste 36 Sudeste 0 928.8 -- 58
2020-09-13 07:00:00 18.7 17 Sudeste 36 Sudeste 0 928.5 -- 58
2020-09-13 06:00:00 19.5 19 Sudeste 40 Sudeste 0 928.1 -- 56
2020-09-13 05:00:00 19.8 22 Sudeste 42 Sudeste 0 928.1 -- 53
2020-09-13 04:00:00 20.2 19 Sudeste 41 Sudeste 0 928 -- 51
2020-09-13 03:00:00 20.9 20 Sudeste 44 Sudeste 0 928 -- 50
2020-09-13 02:00:00 21.8 22 Sudeste 39 Sudeste 0 928 -- 50
2020-09-13 01:00:00 22.7 19 Sudeste 37 Sudeste 0 927.8 -- 45
2020-09-13 00:00:00 24.3 13 Sudeste 24 Sudeste 0 927.4 -- 27
2020-09-12 23:00:00 25.4 4 Este 12 Sudeste 0 926.9 -- 23
2020-09-12 22:00:00 26.5 4 Sudeste 10 Sur 0 926.3 -- 21
2020-09-12 21:00:00 28.5 2 Sudeste 9 Sudeste 0 925.7 -- 19
2020-09-12 20:00:00 30.7 4 Sur 9 Sur 0 925.3 -- 16
2020-09-12 19:00:00 31.9 3 Noroeste 14 Este 0 925 -- 14
2020-09-12 18:00:00 33.4 3 Norte 19 Sudeste 0 925 -- 13
2020-09-12 17:00:00 32.9 8 Este 18 Este 0 925.1 -- 14
2020-09-12 16:00:00 34.5 6 Sur 18 Norte 0 925.5 -- 14
2020-09-12 15:00:00 30.8 5 Nordeste 16 Nordeste 0 925.8 -- 17
2020-09-12 14:00:00 30.9 6 Sudeste 18 Sudeste 0 926.1 -- 18
2020-09-12 13:00:00 29.1 8 Sudeste 20 Este 0 926.3 -- 23
2020-09-12 12:00:00 26.9 11 Sudeste 24 Sudeste 0 926.3 -- 28
2020-09-12 11:00:00 23.7 14 Sudeste 27 Sudeste 0 926 -- 34
2020-09-12 10:00:00 21.6 17 Sudeste 27 Sudeste 0 925.6 -- 39
2020-09-12 09:00:00 19.7 12 Sudeste 24 Sudeste 0 925.1 -- 44
2020-09-12 08:00:00 19 15 Sudeste 25 Sudeste 0 924.4 -- 47
2020-09-12 07:00:00 19 11 Sudeste 23 Sudeste 0 924 -- 48
2020-09-12 06:00:00 19.4 12 Sudeste 25 Sudeste 0 923.7 -- 47
2020-09-12 05:00:00 19.8 13 Sudeste 28 Sudeste 0 923.6 -- 48
2020-09-12 04:00:00 20.1 12 Sudeste 25 Sudeste 0 923.5 -- 47
2020-09-12 03:00:00 21 14 Sudeste 27 Este 0 923.6 -- 43
2020-09-12 02:00:00 22 11 Sudeste 27 Sudeste 0 923.5 -- 29
2020-09-12 01:00:00 21.9 5 Norte 22 Norte 0 923.2 -- 27
2020-09-12 00:00:00 23.4 2 Oeste 6 Sudoeste 0 922.8 -- 26
2020-09-11 23:00:00 23.9 5 Sudoeste 9 Oeste 0 922.5 -- 23
2020-09-11 22:00:00 25.2 4 Oeste 7 Oeste 0 922.4 -- 22
2020-09-11 21:00:00 26.7 4 Noroeste 13 Noroeste 0 921.9 -- 21
2020-09-11 20:00:00 29 4 Noroeste 19 Noroeste 0 921.8 -- 18
2020-09-11 19:00:00 30.1 6 Noroeste 21 Oeste 0 921.8 -- 17
2020-09-11 18:00:00 32.4 6 Oeste 22 Norte 0 921.9 -- 14
2020-09-11 17:00:00 32.5 8 Oeste 28 Noroeste 0 922.3 -- 13
2020-09-11 16:00:00 30.8 9 Noroeste 33 Noroeste 0 922.6 -- 17
2020-09-11 15:00:00 29.8 8 Oeste 23 Noroeste 0 923 -- 20
2020-09-11 14:00:00 28.3 6 Noroeste 22 Norte 0 923.4 -- 21
2020-09-11 13:00:00 27 5 Norte 13 Noroeste 0 923.7 -- 30
2020-09-11 12:00:00 24.2 4 Nordeste 17 Sudeste 0 924 -- 42
2020-09-11 11:00:00 21.9 7 Este 13 Este 0 924.1 -- 51
2020-09-11 10:00:00 19.4 5 Nordeste 12 Nordeste 0 923.8 -- 56
2020-09-11 09:00:00 18 4 Nordeste 19 Sudeste 0 923.6 -- 63
2020-09-11 08:00:00 18.3 11 Este 24 Este 0 923.1 -- 62
2020-09-11 07:00:00 18.6 12 Este 21 Este 0 923.1 -- 60
2020-09-11 06:00:00 19.1 8 Este 15 Sudeste 0 923.3 -- 53
2020-09-11 05:00:00 19.4 3 Este 9 Este 0 923.6 -- 49
2020-09-11 04:00:00 19.9 5 Nordeste 12 Este 0 923.8 -- 48
2020-09-11 03:00:00 20.3 5 Este 13 Noroeste 0 924.2 -- 45
2020-09-11 02:00:00 21.9 5 Este 24 Este 0 924.2 -- 35
2020-09-11 01:00:00 22.8 8 Este 17 Este 0 923.9 -- 29
2020-09-11 00:00:00 23.6 6 Este 14 Nordeste 0 924 -- 27
2020-09-10 23:00:00 24.6 5 Nordeste 10 Nordeste 0 924 -- 25
2020-09-10 22:00:00 24.6 0 Calma 4 Norte 0 923.8 -- 26
2020-09-10 21:00:00 26.1 2 Norte 11 Noroeste 0 923.5 -- 24
2020-09-10 20:00:00 27.7 6 Noroeste 21 Noroeste 0 923.5 -- 21
2020-09-10 19:00:00 29.2 7 Noroeste 24 Norte 0 923.7 -- 19
2020-09-10 18:00:00 29.8 9 Noroeste 35 Noroeste 0 924 -- 18
2020-09-10 17:00:00 29.7 13 Noroeste 33 Noroeste 0 924.5 -- 18
2020-09-10 16:00:00 28.8 3 Noroeste 30 Norte 0 925.1 -- 21
2020-09-10 15:00:00 27.3 7 Norte 23 Norte 0 925.7 -- 25
2020-09-10 14:00:00 26.1 6 Norte 21 Norte 0 926.3 -- 28
2020-09-10 13:00:00 24.2 8 Norte 19 Norte 0 927.1 -- 31
2020-09-10 12:00:00 22.3 5 Norte 12 Nordeste 0 927.4 -- 36
2020-09-10 11:00:00 20 3 Nordeste 9 Noroeste 0 927.5 -- 42
2020-09-10 10:00:00 18 2 Oeste 9 Sudeste 0 927.3 -- 46
2020-09-10 09:00:00 16.3 3 Sudeste 6 Este 0 926.9 -- 49
2020-09-10 08:00:00 15.9 0 Calma 6 Noroeste 0 926.6 -- 54
2020-09-10 07:00:00 16.1 0 Calma 6 Noroeste 0 926.3 -- 49
2020-09-10 06:00:00 16.7 4 Sudoeste 12 Sudeste 0 926.3 -- 47
2020-09-10 05:00:00 18.3 4 Nordeste 15 Este 0 926.4 -- 36
2020-09-10 04:00:00 19.8 5 Este 12 Norte 0 926.5 -- 31
2020-09-10 03:00:00 20.9 5 Norte 10 Norte 0 927 -- 28
2020-09-10 02:00:00 21.4 7 Nordeste 19 Nordeste 0 927.2 -- 27
2020-09-10 01:00:00 21.6 4 Noroeste 13 Oeste 0 927.2 -- 27
2020-09-10 00:00:00 22.4 8 Oeste 16 Noroeste 0 927.1 -- 26
2020-09-09 23:00:00 22.7 7 Oeste 18 Oeste 0 927.2 -- 25
2020-09-09 22:00:00 22.7 8 Oeste 12 Oeste 0 927 -- 25
2020-09-09 21:00:00 24.2 4 Oeste 13 Oeste 0 926.5 -- 23
2020-09-09 20:00:00 26.1 5 Noroeste 22 Noroeste 0 926.5 -- 20
2020-09-09 19:00:00 27.5 5 Norte 24 Noroeste 0 926.5 -- 18
2020-09-09 18:00:00 29 9 Oeste 27 Noroeste 0 926.6 -- 17
2020-09-09 17:00:00 27.3 11 Norte 35 Oeste 0 927.2 -- 19
2020-09-09 16:00:00 27.1 6 Norte 24 Noroeste 0 927.5 -- 19
2020-09-09 15:00:00 26.6 6 Oeste 23 Norte 0 928 -- 22
2020-09-09 14:00:00 24.7 6 Noroeste 19 Norte 0 928.5 -- 25
2020-09-09 13:00:00 23.9 5 Este 14 Nordeste 0 929.1 -- 29
2020-09-09 12:00:00 21.4 5 Este 14 Nordeste 0 929.6 -- 36
2020-09-09 11:00:00 18.5 3 Norte 15 Nordeste 0 930 -- 46
2020-09-09 10:00:00 17.2 7 Nordeste 15 Nordeste 0 929.5 -- 51
2020-09-09 09:00:00 15.5 5 Nordeste 14 Este 0 929.4 -- 55
2020-09-09 08:00:00 14.3 6 Nordeste 13 Nordeste 0 929.1 -- 55
2020-09-09 07:00:00 14.8 6 Este 14 Este 0 928.5 -- 51
2020-09-09 06:00:00 14.6 7 Sudeste 20 Sudeste 0 928.3 -- 50
2020-09-09 05:00:00 14.9 9 Sudeste 23 Sudeste 0 928.5 -- 50
2020-09-09 04:00:00 15.5 8 Sur 25 Sudeste 0 928.7 -- 47
2020-09-09 03:00:00 16.3 14 Sudeste 35 Sudeste 0 928.4 -- 45
2020-09-09 02:00:00 17.1 17 Sudeste 32 Sudeste 0 928.8 -- 42
2020-09-09 01:00:00 17.9 13 Sudeste 25 Sudeste 0 928.9 -- 37
2020-09-09 00:00:00 18.8 12 Sudeste 21 Sudeste 0 928.9 -- 34
2020-09-08 23:00:00 19.8 9 Sudeste 18 Sudeste 0 928.7 -- 30
2020-09-08 22:00:00 20.9 7 Sudeste 14 Sudeste 0 928.3 -- 28
2020-09-08 21:00:00 22.5 7 Sur 24 Sudeste 0 927.7 -- 27
2020-09-08 20:00:00 24.8 12 Sudeste 24 Sudeste 0 927.5 -- 23
2020-09-08 19:00:00 26.8 10 Sudeste 22 Este 0 927.5 -- 20
2020-09-08 18:00:00 28.6 10 Sudeste 29 Sudeste 0 927.7 -- 19
2020-09-08 17:00:00 27.7 8 Este 32 Sudeste 0 927.8 -- 20
2020-09-08 16:00:00 26.9 11 Sudeste 30 Sudeste 0 928.3 -- 22
2020-09-08 15:00:00 26.4 12 Sudeste 37 Sudeste 0 928.7 -- 22
2020-09-08 14:00:00 24.5 15 Sudeste 32 Sudeste 0 929.1 -- 27
2020-09-08 13:00:00 22.7 13 Sudeste 28 Sudeste 0 929.5 -- 32
2020-09-08 12:00:00 20.3 15 Este 28 Sudeste 0 929.9 -- 42
2020-09-08 11:00:00 18.2 17 Sudeste 32 Sudeste 0 929.9 -- 48
2020-09-08 10:00:00 14.9 7 Nordeste 20 Este 0 929.8 -- 48
2020-09-08 09:00:00 13.1 7 Nordeste 18 Nordeste 0 929.4 -- 53
2020-09-08 08:00:00 13 7 Nordeste 18 Nordeste 0 929 -- 60
2020-09-08 07:00:00 13.5 6 Nordeste 17 Nordeste 0 928.5 -- 65
2020-09-08 06:00:00 13.8 6 Nordeste 13 Nordeste 0 928.4 -- 61
2020-09-08 05:00:00 14.5 5 Norte 11 Nordeste 0 928.3 -- 65
2020-09-08 04:00:00 15.7 4 Nordeste 9 Nordeste 0 928.5 -- 60
2020-09-08 03:00:00 16.7 6 Sudeste 16 Sudeste 0 928.3 -- 65
2020-09-08 02:00:00 17.4 8 Sudeste 21 Este 0 928.3 -- 57
2020-09-08 01:00:00 17.8 10 Este 21 Este 0 928 -- 25
2020-09-08 00:00:00 18.8 10 Nordeste 26 Nordeste 0 927.8 -- 23
2020-09-07 23:00:00 20.1 9 Nordeste 21 Nordeste 0 927.1 -- 20
2020-09-07 22:00:00 20.5 13 Norte 20 Norte 0 926.6 -- 19
2020-09-07 21:00:00 21.9 10 Norte 28 Norte 0 925.8 -- 17
2020-09-07 20:00:00 23.7 18 Norte 35 Norte 0 925.5 -- 14
2020-09-07 19:00:00 25 21 Norte 40 Noroeste 0 925.1 -- 14
2020-09-07 18:00:00 25.9 17 Norte 42 Norte 0 925 -- 14
2020-09-07 17:00:00 25.8 15 Norte 37 Norte 0 925 -- 18
2020-09-07 16:00:00 24.7 15 Norte 41 Norte 0 925.3 -- 21
2020-09-07 15:00:00 24 17 Norte 41 Norte 0 925.7 -- 20
2020-09-07 14:00:00 23 20 Norte 39 Norte 0 925.9 -- 23
2020-09-07 13:00:00 21.5 14 Norte 35 Norte 0 926 -- 28
2020-09-07 12:00:00 19.7 17 Norte 41 Norte 0 926.3 -- 32
2020-09-07 11:00:00 17.6 21 Norte 37 Norte 0 926 -- 39
2020-09-07 10:00:00 15.8 18 Norte 30 Norte 0 925.4 -- 47
2020-09-07 09:00:00 13.3 10 Norte 17 Norte 0 925 -- 57
2020-09-07 08:00:00 13.1 2 Noroeste 12 Norte 0 924.4 -- 61
2020-09-07 07:00:00 13.6 5 Norte 15 Noroeste 0 924.1 -- 60
2020-09-07 06:00:00 14.6 4 Noroeste 14 Noroeste 0 923.6 -- 57
2020-09-07 05:00:00 16 5 Noroeste 12 Noroeste 0 923.6 -- 55
2020-09-07 04:00:00 17.3 5 Norte 12 Norte 0 923.7 -- 54
2020-09-07 03:00:00 19.2 6 Norte 14 Noroeste 0 924 -- 48
2020-09-07 02:00:00 21.5 7 Norte 14 Norte 0 923.9 -- 38
2020-09-07 01:00:00 22.5 8 Norte 13 Norte 0 923.6 -- 32
2020-09-07 00:00:00 23.9 8 Norte 22 Norte 0 923.4 -- 27
2020-09-06 23:00:00 25.8 6 Noroeste 28 Noroeste 0 923.3 -- 23
2020-09-06 22:00:00 26.5 6 Oeste 10 Oeste 0 922.5 -- 21
2020-09-06 21:00:00 28.1 6 Sudoeste 14 Oeste 0 922.1 -- 19
2020-09-06 20:00:00 30.4 7 Oeste 22 Noroeste 0 922.1 -- 15
2020-09-06 19:00:00 32 5 Noroeste 29 Noroeste 0 922.3 -- 13
2020-09-06 18:00:00 32.1 7 Oeste 27 Noroeste 0 922.6 -- 13
2020-09-06 17:00:00 34.1 11 Sudoeste 31 Sudoeste 0 923 -- 12
2020-09-06 16:00:00 33.7 7 Sur 27 Sur 0 923.5 -- 12
2020-09-06 15:00:00 32.3 9 Sudoeste 22 Sudoeste 0 924 -- 12
2020-09-06 14:00:00 31.1 10 Sudeste 28 Sudeste 0 924.6 -- 14
2020-09-06 13:00:00 29.3 12 Sudeste 27 Sudeste 0 925.2 -- 16
2020-09-06 12:00:00 26.1 13 Sudeste 30 Sudeste 0 925.4 -- 24
2020-09-06 11:00:00 24.2 15 Sudeste 31 Sudeste 0 925.2 -- 28
2020-09-06 10:00:00 21.5 13 Sudeste 24 Este 0 925.1 -- 35
2020-09-06 09:00:00 19.2 10 Este 22 Este 0 925 -- 43
2020-09-06 08:00:00 18.6 8 Este 18 Este 0 924.8 -- 45
2020-09-06 07:00:00 18.7 4 Nordeste 17 Este 0 924.8 -- 46
2020-09-06 06:00:00 18.8 3 Norte 26 Sudeste 0 925.1 -- 46
2020-09-06 05:00:00 18.8 13 Sudeste 28 Sudeste 0 924.8 -- 45
2020-09-06 04:00:00 19.5 16 Sudeste 32 Sudeste 0 925 -- 42
2020-09-06 03:00:00 20.4 15 Sudeste 41 Sudeste 0 925.3 -- 41
2020-09-06 02:00:00 21.3 23 Sudeste 48 Sudeste 0 925.6 -- 37
2020-09-06 01:00:00 22.5 23 Sudeste 45 Sudeste 0 925.6 -- 33
2020-09-06 00:00:00 23.8 19 Sudeste 40 Sudeste 0 925.5 -- 34
2020-09-05 23:00:00 25.9 9 Sudeste 22 Sudeste 0 925.1 -- 24
2020-09-05 22:00:00 27.1 3 Sudoeste 6 Oeste 0 924.2 -- 23
2020-09-05 21:00:00 29 4 Oeste 12 Oeste 0 923.9 -- 20
2020-09-05 20:00:00 31 4 Oeste 13 Oeste 0 924 -- 17
2020-09-05 19:00:00 33.3 3 Sur 18 Sur 0 924.2 -- 15
2020-09-05 18:00:00 34.2 5 Oeste 17 Sudoeste 0 924.5 -- 14
2020-09-05 17:00:00 34 4 Sur 18 Noroeste 0 925 -- 14
2020-09-05 16:00:00 31.5 8 Nordeste 19 Norte 0 925.9 -- 17
2020-09-05 15:00:00 31.5 6 Este 19 Sudeste 0 926.6 -- 18
2020-09-05 14:00:00 30.1 5 Sur 17 Sudeste 0 927.1 -- 20
2020-09-05 13:00:00 27.3 5 Este 17 Sudeste 0 927.8 -- 28
2020-09-05 12:00:00 25.6 9 Sudeste 23 Este 0 928 -- 35
2020-09-05 11:00:00 22.6 12 Sudeste 21 Sudeste 0 928.1 -- 51
2020-09-05 10:00:00 20.1 13 Sudeste 24 Sudeste 0 928 -- 63
2020-09-05 09:00:00 18 11 Sudeste 22 Sudeste 0 927.8 -- 70
2020-09-05 08:00:00 17.4 13 Sudeste 26 Este 0 927.7 -- 72
2020-09-05 07:00:00 17.8 12 Sudeste 23 Este 0 927.6 -- 67
2020-09-05 06:00:00 17.9 13 Sudeste 26 Sudeste 0 927.8 -- 65
2020-09-05 05:00:00 18.2 12 Sudeste 35 Sudeste 0 927.8 -- 64
2020-09-05 04:00:00 18.9 15 Sudeste 30 Sudeste 0 928 -- 63
2020-09-05 03:00:00 19.7 18 Sudeste 32 Sudeste 0 928.5 -- 58
2020-09-05 02:00:00 20.8 14 Sudeste 33 Sudeste 0 928.7 -- 54
2020-09-05 01:00:00 22 18 Sudeste 32 Sudeste 0 928.7 -- 46
2020-09-05 00:00:00 22.6 11 Sudeste 19 Sudeste 0 928.8 -- 34
2020-09-04 23:00:00 23.7 4 Sudeste 12 Sudeste 0 928.9 -- 29
2020-09-04 22:00:00 25.3 8 Sur 17 Sur 0 928.6 -- 25
2020-09-04 21:00:00 27 8 Sur 19 Sur 0 928.2 -- 22
2020-09-04 20:00:00 29.2 11 Sudeste 23 Sudeste 0 928 -- 16
2020-09-04 19:00:00 31.8 13 Sudeste 25 Sudeste 0 928.2 -- 12
2020-09-04 18:00:00 33.6 10 Sudeste 26 Sudeste 0 928.5 -- 10
2020-09-04 17:00:00 33 13 Sudeste 32 Sudeste 0 928.8 -- 10
2020-09-04 16:00:00 32.4 12 Sudeste 35 Este 0 929.6 -- 13
2020-09-04 15:00:00 30.6 12 Este 37 Sudeste 0 930.4 -- 16
2020-09-04 14:00:00 28.9 9 Este 26 Este 0 930.8 -- 24
2020-09-04 13:00:00 27.5 12 Sudeste 26 Sudeste 0 931.6 -- 26
2020-09-04 12:00:00 24.8 15 Sudeste 27 Sudeste 0 931.9 -- 31
2020-09-04 11:00:00 22.1 13 Sudeste 23 Sudeste 0 931.9 -- 40
2020-09-04 10:00:00 19.7 6 Este 23 Este 0 931.4 -- 50
2020-09-04 09:00:00 18.1 10 Sudeste 17 Sudeste 0 930.8 -- 58
2020-09-04 08:00:00 17.5 10 Sudeste 27 Sudeste 0 930.3 -- 61
2020-09-04 07:00:00 17.7 13 Sudeste 26 Sudeste 0 929.9 -- 62
2020-09-04 06:00:00 18.2 14 Sudeste 35 Sudeste 0 929.7 -- 62
2020-09-04 05:00:00 18.7 19 Sudeste 35 Sudeste 0 929.7 -- 60
2020-09-04 04:00:00 19 18 Sudeste 39 Sudeste 0 929.8 -- 58
2020-09-04 03:00:00 19.8 22 Sudeste 42 Sudeste 0 930 -- 57
2020-09-04 02:00:00 20.8 19 Sudeste 42 Sudeste 0 930.1 -- 54
2020-09-04 01:00:00 22 19 Sudeste 36 Sudeste 0 930.1 -- 48
2020-09-04 00:00:00 23.5 9 Sudeste 16 Sudeste 0 929.6 -- 27
2020-09-03 23:00:00 24.8 10 Sudeste 16 Sudeste 0 929.3 -- 25
2020-09-03 22:00:00 25.5 5 Sur 12 Sudeste 0 928.8 -- 24
2020-09-03 21:00:00 27.6 4 Sur 10 Sudeste 0 928.1 -- 22
2020-09-03 20:00:00 29.5 5 Sur 15 Sudoeste 0 927.8 -- 18
2020-09-03 19:00:00 30.9 6 Oeste 16 Sur 0 927.6 -- 15
2020-09-03 18:00:00 31.3 3 Sudeste 18 Noroeste 0 927.6 -- 16
2020-09-03 17:00:00 30.6 8 Nordeste 22 Norte 0 927.8 -- 16
2020-09-03 16:00:00 31.4 9 Sudeste 18 Sudeste 0 928.1 -- 15
2020-09-03 15:00:00 29.7 8 Este 19 Sudoeste 0 928.5 -- 19
2020-09-03 14:00:00 28.6 6 Sudoeste 15 Sudoeste 0 928.8 -- 20
2020-09-03 13:00:00 26.8 7 Sudeste 17 Sudeste 0 929.1 -- 31
2020-09-03 12:00:00 24.3 7 Sur 15 Sudeste 0 929.1 -- 43
2020-09-03 11:00:00 21.4 10 Sudeste 25 Sudeste 0 928.9 -- 57
2020-09-03 10:00:00 19 14 Sudeste 29 Este 0 928.3 -- 69
2020-09-03 09:00:00 17.3 15 Sudeste 28 Sudeste 0 927.8 -- 77
2020-09-03 08:00:00 16.4 15 Sudeste 25 Sudeste 0 927.4 -- 80
2020-09-03 07:00:00 16.7 15 Sudeste 35 Este 0 926.9 -- 78
2020-09-03 06:00:00 17 14 Sudeste 25 Sudeste 0 926.6 -- 75
2020-09-03 05:00:00 17.2 10 Sudeste 22 Sudeste 0 926.6 -- 71
2020-09-03 04:00:00 18.3 12 Sudeste 28 Sudeste 0 926.5 -- 65
2020-09-03 03:00:00 18.8 17 Sudeste 29 Sudeste 0 926.1 -- 62
2020-09-03 02:00:00 19.7 14 Sudeste 29 Sudeste 0 926.1 -- 50
2020-09-03 01:00:00 21.4 2 Nordeste 4 Norte 0 925.6 -- 26
2020-09-03 00:00:00 21.9 2 Sudoeste 5 Oeste 0 925.3 -- 24
2020-09-02 23:00:00 22.5 4 Sudoeste 9 Oeste 0 925.2 -- 22
2020-09-02 22:00:00 23.6 5 Oeste 8 Noroeste 0 924.8 -- 21
2020-09-02 21:00:00 25.6 4 Noroeste 10 Noroeste 0 924.2 -- 19
2020-09-02 20:00:00 27.2 4 Noroeste 16 Noroeste 0 923.8 -- 17
2020-09-02 19:00:00 28.3 3 Noroeste 20 Noroeste 0 923.5 -- 15
2020-09-02 18:00:00 29.3 5 Noroeste 23 Noroeste 0 923.4 -- 12
2020-09-02 17:00:00 29.9 8 Oeste 29 Sudoeste 0 923.3 -- 13
2020-09-02 16:00:00 28.5 5 Sudeste 26 Norte 0 923.3 -- 15
2020-09-02 15:00:00 26.6 9 Noroeste 23 Norte 0 923.7 -- 19
2020-09-02 14:00:00 25.6 6 Norte 19 Nordeste 0 923.9 -- 25
2020-09-02 13:00:00 24.4 5 Norte 17 Norte 0 924.2 -- 31
2020-09-02 12:00:00 22.3 7 Este 18 Nordeste 0 924.5 -- 41
2020-09-02 11:00:00 19.7 6 Este 17 Nordeste 0 924 -- 39
2020-09-02 10:00:00 17.7 6 Norte 13 Norte 0 923.5 -- 46
2020-09-02 09:00:00 15.8 6 Nordeste 12 Nordeste 0 923.1 -- 48
2020-09-02 08:00:00 14.8 5 Norte 10 Nordeste 0 922.7 -- 55
2020-09-02 07:00:00 16.6 5 Nordeste 18 Este 0 922 -- 57
2020-09-02 06:00:00 17.4 10 Este 18 Este 0 921.5 -- 47
2020-09-02 05:00:00 17.3 9 Sudeste 16 Este 0 921.4 -- 43
2020-09-02 04:00:00 18.3 9 Este 18 Sudeste 0 921.5 -- 28
2020-09-02 03:00:00 19.7 8 Este 15 Este 0 921.1 -- 25
2020-09-02 02:00:00 20 5 Este 10 Nordeste 0 921.1 -- 24
2020-09-02 01:00:00 20.5 5 Sudeste 9 Este 0 920.9 -- 23
2020-09-02 00:00:00 21.5 5 Este 8 Sudeste 0 920.8 -- 22
2020-09-01 23:00:00 22.4 6 Este 10 Este 0 920.6 -- 21
2020-09-01 22:00:00 22.7 4 Sudeste 6 Sur 0 920.4 -- 22
2020-09-01 21:00:00 23.6 4 Sudoeste 13 Sudoeste 0 920 -- 20
2020-09-01 20:00:00 25.2 4 Norte 14 Norte 0 919.8 -- 17
2020-09-01 19:00:00 25.5 4 Norte 15 Norte 0 919.8 -- 18
2020-09-01 18:00:00 25.4 8 Norte 19 Norte 0 919.9 -- 18
2020-09-01 17:00:00 25.8 5 Nordeste 24 Norte 0 920.2 -- 18
2020-09-01 16:00:00 26.9 12 Norte 30 Noroeste 0 920.8 -- 15
2020-09-01 15:00:00 25.2 8 Noroeste 28 Noroeste 0 921.2 -- 23
2020-09-01 14:00:00 23.4 4 Este 13 Este 0 921.6 -- 31
2020-09-01 13:00:00 19.9 6 Norte 20 Noroeste 0 922.3 -- 44
2020-09-01 12:00:00 19.9 9 Sudoeste 22 Este 0 922.5 -- 51
2020-09-01 11:00:00 18.3 9 Sudeste 17 Sur 0 922.4 -- 64
2020-09-01 10:00:00 17.7 9 Este 14 Sudeste 0 922.5 -- 61
2020-09-01 09:00:00 16.4 9 Este 18 Este 0 922.3 -- 63
2020-09-01 08:00:00 16 9 Este 16 Este 0 922.4 -- 59
2020-09-01 07:00:00 16.2 10 Este 16 Sudeste 0 922.1 -- 55
2020-09-01 06:00:00 16.1 12 Sudeste 18 Sudeste 0 922.3 -- 52
2020-09-01 05:00:00 16.8 9 Este 17 Este 0 922.6 -- 32
2020-09-01 04:00:00 18.5 8 Este 13 Este 0 923 -- 24
2020-09-01 03:00:00 17.3 7 Este 13 Sudeste 0 923.8 -- 27
2020-09-01 02:00:00 16.8 3 Sudeste 5 Sudeste 0 924 -- 29
2020-09-01 01:00:00 17 3 Este 6 Este 0 924.1 -- 27
2020-09-01 00:00:00 18.9 0 Calma 4 Nordeste 0 924.1 -- 22
2020-08-31 23:00:00 19.8 3 Norte 9 Norte 0 924 -- 22
2020-08-31 22:00:00 20.8 3 Noroeste 11 Oeste 0 923.7 -- 19
2020-08-31 21:00:00 22.2 5 Noroeste 19 Noroeste 0 923.7 -- 17
2020-08-31 20:00:00 24.3 8 Noroeste 21 Norte 0 923.6 -- 20
2020-08-31 19:00:00 25.3 8 Norte 21 Noroeste 0 923.9 -- 18
2020-08-31 18:00:00 27.4 7 Oeste 21 Sudoeste 0 924 -- 14
2020-08-31 17:00:00 26.2 9 Noroeste 21 Sudoeste 0 924.7 -- 15
2020-08-31 16:00:00 26.1 5 Sudoeste 24 Sudoeste 0 925.1 -- 16
2020-08-31 15:00:00 25.5 8 Sur 17 Sur 0 925.7 -- 17
2020-08-31 14:00:00 23.2 4 Oeste 17 Sudeste 0 926.2 -- 23
2020-08-31 13:00:00 21.4 3 Norte 14 Sudeste 0 926.8 -- 26
2020-08-31 12:00:00 19.5 4 Este 16 Este 0 927 -- 33
2020-08-31 11:00:00 18 5 Este 15 Sudeste 0 926.6 -- 39
2020-08-31 10:00:00 16 5 Este 12 Nordeste 0 926.5 -- 40
2020-08-31 09:00:00 13.9 3 Nordeste 10 Nordeste 0 926.5 -- 47
2020-08-31 08:00:00 13.2 4 Este 9 Este 0 926.1 -- 48
2020-08-31 07:00:00 12 4 Norte 10 Nordeste 0 925.4 -- 51
2020-08-31 06:00:00 12.2 7 Norte 13 Nordeste 0 925.3 -- 49
2020-08-31 05:00:00 12.9 6 Norte 15 Nordeste 0 925.5 -- 46
2020-08-31 04:00:00 14.1 7 Nordeste 21 Este 0 925.5 -- 44
2020-08-31 03:00:00 14.8 8 Nordeste 16 Nordeste 0 925.5 -- 40
2020-08-31 02:00:00 14 6 Norte 14 Nordeste 0 925.4 -- 38
2020-08-31 01:00:00 15 9 Norte 24 Noroeste 0 925.2 -- 33
2020-08-31 00:00:00 16.4 9 Norte 19 Norte 0 924.8 -- 27
2020-08-30 23:00:00 17.3 5 Norte 17 Norte 0 924.1 -- 26
2020-08-30 22:00:00 18.2 7 Norte 15 Norte 0 923.3 -- 24
2020-08-30 21:00:00 19.9 4 Noroeste 21 Noroeste 0 922.5 -- 21
2020-08-30 20:00:00 21.1 13 Norte 28 Noroeste 0 921.9 -- 17
2020-08-30 19:00:00 22.2 14 Norte 36 Norte 0 921.5 -- 18
2020-08-30 18:00:00 24 8 Noroeste 30 Noroeste 0 921.2 -- 17
2020-08-30 17:00:00 23 12 Norte 31 Noroeste 0 921.2 -- 18
2020-08-30 16:00:00 22.4 10 Norte 34 Noroeste 0 921.5 -- 20
2020-08-30 15:00:00 20.8 12 Norte 33 Norte 0 921.9 -- 23
2020-08-30 14:00:00 19.2 15 Norte 31 Norte 0 922.3 -- 28
2020-08-30 13:00:00 17.6 15 Norte 33 Noroeste 0 922.6 -- 33
2020-08-30 12:00:00 16.1 12 Noroeste 32 Norte 0 922.6 -- 40
2020-08-30 11:00:00 14.6 15 Norte 36 Noroeste 0 922.3 -- 47
2020-08-30 10:00:00 12 11 Norte 24 Norte 0 921.9 -- 59
2020-08-30 09:00:00 10 8 Noroeste 15 Norte 0 921.8 -- 67
2020-08-30 08:00:00 9.3 4 Noroeste 10 Noroeste 0 921.5 -- 68
2020-08-30 07:00:00 9.8 6 Norte 11 Norte 0 921 -- 66
2020-08-30 06:00:00 10.2 6 Norte 13 Norte 0 920.7 -- 67
2020-08-30 05:00:00 10.9 6 Norte 17 Norte 0 920.6 -- 64
2020-08-30 04:00:00 11.3 9 Norte 16 Norte 0 920.4 -- 62
2020-08-30 03:00:00 12.6 12 Norte 21 Norte 0 920 -- 57
2020-08-30 02:00:00 13.4 11 Norte 24 Norte 0 920.1 -- 53
2020-08-30 01:00:00 14.4 14 Norte 23 Norte 0 919.7 -- 49
2020-08-30 00:00:00 15.1 15 Norte 25 Norte 0 919.3 -- 47
2020-08-29 23:00:00 16.1 13 Norte 29 Norte 0 918.6 -- 40
2020-08-29 22:00:00 17.2 12 Norte 33 Norte 0 917.9 -- 34
2020-08-29 21:00:00 19 18 Noroeste 52 Noroeste 0 916.9 -- 30
2020-08-29 20:00:00 21.3 14 Noroeste 36 Noroeste 0 916.1 -- 23
2020-08-29 19:00:00 22.3 16 Noroeste 45 Noroeste 0 915.8 -- 19
2020-08-29 18:00:00 23.3 17 Noroeste 47 Noroeste 0 915.5 -- 18
2020-08-29 17:00:00 23.3 19 Noroeste 55 Norte 0 915.4 -- 20
2020-08-29 16:00:00 21.9 15 Noroeste 43 Norte 0 915.4 -- 24
2020-08-29 15:00:00 21.9 15 Noroeste 42 Norte 0 915.5 -- 25
2020-08-29 14:00:00 20.7 17 Norte 45 Noroeste 0 915.6 -- 26
2020-08-29 13:00:00 19.4 18 Noroeste 45 Norte 0 915.7 -- 29
2020-08-29 12:00:00 17.9 20 Norte 42 Norte 0 915.7 -- 35
2020-08-29 11:00:00 16.8 24 Norte 40 Noroeste 0 915.6 -- 42
2020-08-29 10:00:00 15.5 24 Norte 39 Norte 0 915.4 -- 51
2020-08-29 09:00:00 14.1 12 Norte 31 Norte 0 915 -- 54
2020-08-29 08:00:00 13.3 18 Norte 33 Norte 0 914.6 -- 58
2020-08-29 07:00:00 13.7 12 Norte 31 Norte 0 914.1 -- 64
2020-08-29 06:00:00 14.4 18 Norte 35 Norte 0 914 -- 64
2020-08-29 05:00:00 15.4 14 Norte 28 Norte 0 914 -- 66
2020-08-29 04:00:00 17.5 14 Norte 27 Noroeste 0 913.8 -- 53
2020-08-29 03:00:00 19.2 6 Oeste 15 Oeste 0 913.7 -- 31
2020-08-29 02:00:00 20.1 4 Noroeste 22 Oeste 0 914.1 -- 27
2020-08-29 01:00:00 20.8 10 Noroeste 20 Oeste 0 914.4 -- 22
2020-08-29 00:00:00 22.3 9 Oeste 20 Oeste 0 914.4 -- 16
2020-08-28 23:00:00 24.1 8 Noroeste 31 Noroeste 0 914.5 -- 15
2020-08-28 22:00:00 25.9 13 Oeste 35 Oeste 0 914.3 -- 19
2020-08-28 21:00:00 27.8 14 Oeste 40 Oeste 0 913.7 -- 16
2020-08-28 20:00:00 29.6 15 Oeste 42 Oeste 0 913.7 -- 16
2020-08-28 19:00:00 31.2 18 Oeste 50 Oeste 0 913.7 -- 16
2020-08-28 18:00:00 33 20 Oeste 44 Oeste 0 913.8 -- 19
2020-08-28 17:00:00 34 14 Oeste 41 Sudoeste 0 914.4 -- 18
2020-08-28 16:00:00 33.4 19 Oeste 40 Oeste 0 914.9 -- 18
2020-08-28 15:00:00 32.5 15 Oeste 40 Oeste 0 915.9 -- 19
2020-08-28 14:00:00 31.7 14 Oeste 32 Oeste 0 916.7 -- 20
2020-08-28 13:00:00 29.5 6 Noroeste 19 Noroeste 0 917.6 -- 22
2020-08-28 12:00:00 27.4 6 Noroeste 20 Noroeste 0 918.1 -- 25
2020-08-28 11:00:00 25.4 4 Noroeste 10 Noroeste 0 918 -- 35
2020-08-28 10:00:00 23.5 3 Nordeste 9 Este 0 918.1 -- 42
2020-08-28 09:00:00 22 3 Sudeste 6 Noroeste 0 918.2 -- 44
2020-08-28 08:00:00 21.6 2 Norte 9 Sudeste 0 918.3 -- 44
2020-08-28 07:00:00 23 6 Sudeste 18 Este 0 918.1 -- 40
2020-08-28 06:00:00 23.8 9 Este 15 Este 0 918.4 -- 36
2020-08-28 05:00:00 24.2 5 Este 12 Sudeste 0 918.9 -- 27
2020-08-28 04:00:00 23.8 0 Calma 10 Sudeste 0 919.5 -- 23
2020-08-28 03:00:00 24.3 4 Sur 14 Sudeste 0 919.9 -- 23
2020-08-28 02:00:00 25.6 3 Sur 7 Sudoeste 0 920.5 -- 22
2020-08-28 01:00:00 26.7 5 Oeste 13 Oeste 0 920.8 -- 19
2020-08-28 00:00:00 28.6 0 Calma 4 Norte 0 921 -- 17
2020-08-27 23:00:00 29.6 2 Nordeste 6 Noroeste 0 921.5 -- 15
2020-08-27 22:00:00 30.6 3 Noroeste 6 Noroeste 0 921.7 -- 14
2020-08-27 21:00:00 32.6 2 Norte 11 Noroeste 0 921.8 -- 12
2020-08-27 20:00:00 34.5 5 Noroeste 19 Sudoeste 0 922 -- 10
2020-08-27 19:00:00 36.2 4 Oeste 20 Sudeste 0 922.4 -- 10
2020-08-27 18:00:00 37.4 6 Sudoeste 22 Oeste 0 923 -- 9
2020-08-27 17:00:00 37.2 10 Oeste 27 Noroeste 0 923.7 -- 11
2020-08-27 16:00:00 36.5 9 Oeste 28 Noroeste 0 924.4 -- 11
2020-08-27 15:00:00 34.2 8 Noroeste 20 Noroeste 0 925.1 -- 12
2020-08-27 14:00:00 33.4 5 Norte 17 Noroeste 0 925.5 -- 14
2020-08-27 13:00:00 31.6 6 Noroeste 15 Noroeste 0 926 -- 15
2020-08-27 12:00:00 29.2 4 Sudoeste 13 Sudoeste 0 926.4 -- 18
2020-08-27 11:00:00 26.6 6 Sudoeste 16 Sudoeste 0 926.3 -- 22
2020-08-27 10:00:00 24.1 9 Sur 18 Sur 0 926 -- 24
2020-08-27 09:00:00 21.7 10 Sudeste 20 Sudeste 0 925.9 -- 31
2020-08-27 08:00:00 20.4 10 Sudeste 18 Sudeste 0 925.9 -- 34
2020-08-27 07:00:00 21.1 9 Sudeste 18 Sudeste 0 925.8 -- 29
2020-08-27 06:00:00 22.5 12 Sudeste 19 Sudeste 0 925.7 -- 27
2020-08-27 05:00:00 23.4 8 Sudeste 16 Sudeste 0 925.8 -- 24
2020-08-27 04:00:00 23.8 8 Sudeste 13 Sudeste 0 926 -- 24
2020-08-27 03:00:00 25.9 5 Sudoeste 11 Oeste 0 926.2 -- 20
2020-08-27 02:00:00 27.2 3 Sudoeste 8 Oeste 0 926.4 -- 18
2020-08-27 01:00:00 28.1 4 Noroeste 19 Oeste 0 926.5 -- 18
2020-08-27 00:00:00 28.9 7 Oeste 14 Oeste 0 926.6 -- 18
2020-08-26 23:00:00 29.5 5 Noroeste 9 Noroeste 0 926.5 -- 18
2020-08-26 22:00:00 30.8 3 Noroeste 13 Noroeste 0 925.9 -- 17
2020-08-26 21:00:00 32.9 4 Noroeste 15 Norte 0 925.3 -- 14
2020-08-26 20:00:00 35 7 Oeste 17 Noroeste 0 925.1 -- 12
2020-08-26 19:00:00 36.6 10 Oeste 20 Oeste 0 925.1 -- 11
2020-08-26 18:00:00 37.9 12 Oeste 28 Sudoeste 0 925.5 -- 10
2020-08-26 17:00:00 37.3 6 Oeste 26 Oeste 0 925.8 -- 10
2020-08-26 16:00:00 36.9 7 Noroeste 30 Sudoeste 0 926.2 -- 12
2020-08-26 15:00:00 36.1 12 Sudoeste 26 Oeste 0 926.6 -- 12
2020-08-26 14:00:00 34.9 6 Oeste 15 Sudoeste 0 926.9 -- 15
2020-08-26 13:00:00 32.6 6 Sur 14 Sudoeste 0 927.3 -- 20
2020-08-26 12:00:00 29.8 6 Sur 20 Sudeste 0 927.5 -- 28
2020-08-26 11:00:00 27.7 8 Sudeste 23 Sur 0 927 -- 37
2020-08-26 10:00:00 25.3 12 Sudeste 22 Sudeste 0 926.3 -- 44
2020-08-26 09:00:00 22.6 11 Sudeste 18 Sudeste 0 925.9 -- 55
2020-08-26 08:00:00 21.8 9 Sudeste 16 Sudeste 0 925.7 -- 57
2020-08-26 07:00:00 22.3 10 Sudeste 19 Sudeste 0 925.4 -- 55
2020-08-26 06:00:00 22.9 10 Sudeste 19 Sudeste 0 925.2 -- 52
2020-08-26 05:00:00 23.2 9 Sudeste 19 Sudeste 0 925.3 -- 45
2020-08-26 04:00:00 24.2 11 Sudeste 17 Sudeste 0 925.3 -- 32
2020-08-26 03:00:00 24 7 Sudeste 17 Sudeste 0 925.2 -- 23
2020-08-26 02:00:00 25.1 7 Sudeste 23 Sudeste 0 925.3 -- 24
2020-08-26 01:00:00 26.7 2 Este 4 Sudeste 0 925.1 -- 23
2020-08-26 00:00:00 27.5 0 Calma 4 Este 0 924.9 -- 21
2020-08-25 23:00:00 29 2 Norte 3 Norte 0 924.6 -- 19
2020-08-25 22:00:00 30.1 0 Calma 4 Norte 0 924 -- 16
2020-08-25 21:00:00 31.9 2 Norte 16 Noroeste 0 923.2 -- 14
2020-08-25 20:00:00 34 6 Noroeste 21 Oeste 0 923 -- 12
2020-08-25 19:00:00 35.1 2 Norte 26 Oeste 0 923.1 -- 11
2020-08-25 18:00:00 36.9 16 Sudoeste 26 Sudoeste 0 923.3 -- 9
2020-08-25 17:00:00 37 8 Oeste 28 Sudoeste 0 923.5 -- 10
2020-08-25 16:00:00 35.8 7 Sudoeste 32 Oeste 0 923.8 -- 11
2020-08-25 15:00:00 35 11 Sudoeste 31 Oeste 0 924.2 -- 13
2020-08-25 14:00:00 33.2 6 Sudoeste 18 Sudoeste 0 924.6 -- 19
2020-08-25 13:00:00 31.3 7 Sur 19 Sudeste 0 924.8 -- 23
2020-08-25 12:00:00 28.5 9 Sudeste 27 Sudeste 0 924.8 -- 34
2020-08-25 11:00:00 25.4 13 Sudeste 25 Sudeste 0 924.6 -- 48
2020-08-25 10:00:00 23.1 13 Sudeste 27 Sudeste 0 924.2 -- 64
2020-08-25 09:00:00 21.3 16 Sudeste 27 Sudeste 0 924.1 -- 75
2020-08-25 08:00:00 20.6 15 Sudeste 27 Sudeste 0 923.5 -- 78
2020-08-25 07:00:00 21 17 Sudeste 30 Sudeste 0 923.1 -- 77
2020-08-25 06:00:00 21.4 17 Sudeste 30 Sudeste 0 923.1 -- 75
2020-08-25 05:00:00 22 18 Sudeste 28 Sudeste 0 923.2 -- 70
2020-08-25 04:00:00 22.7 13 Sudeste 23 Sudeste 0 923.3 -- 65
2020-08-25 03:00:00 23.3 11 Sudeste 21 Sudeste 0 923.3 -- 57
2020-08-25 02:00:00 24.3 12 Sudeste 23 Sudeste 0 923.5 -- 45
2020-08-25 01:00:00 25.3 5 Este 21 Este 0 923.4 -- 32
2020-08-25 00:00:00 26.1 3 Este 5 Sudeste 0 923.2 -- 30
2020-08-24 23:00:00 27.5 2 Sudeste 5 Sur 0 923.1 -- 26
2020-08-24 22:00:00 28.8 0 Calma 8 Sudoeste 0 922.8 -- 26
2020-08-24 21:00:00 30.5 3 Sudoeste 13 Sudoeste 0 922.2 -- 21
2020-08-24 20:00:00 32 11 Sudoeste 18 Sudoeste 0 922.1 -- 17
2020-08-24 19:00:00 33.2 3 Oeste 20 Sudoeste 0 922.4 -- 16
2020-08-24 18:00:00 35.1 9 Sudoeste 17 Sur 0 922.6 -- 15
2020-08-24 17:00:00 34.8 7 Sudoeste 22 Sudoeste 0 923.1 -- 17
2020-08-24 16:00:00 33.9 12 Sudoeste 28 Sur 0 923.5 -- 19
2020-08-24 15:00:00 33.1 10 Sur 31 Sudeste 0 924 -- 24
2020-08-24 14:00:00 30.8 8 Este 27 Este 0 924.5 -- 34
2020-08-24 13:00:00 29.8 10 Sudeste 28 Sur 0 925.1 -- 38
2020-08-24 12:00:00 27.3 14 Este 31 Este 0 925.5 -- 50
2020-08-24 11:00:00 25 10 Este 26 Sudeste 0 925.6 -- 60
2020-08-24 10:00:00 23.8 13 Este 26 Este 0 925.6 -- 66
2020-08-24 09:00:00 22.6 10 Sudeste 20 Sudeste 0 925.3 -- 72
2020-08-24 08:00:00 21.8 6 Este 19 Este 0 924.9 -- 77
2020-08-24 07:00:00 22.1 8 Este 17 Este 0 924.5 -- 75
2020-08-24 06:00:00 22.3 9 Sudeste 33 Sudeste 0 924.3 -- 74
2020-08-24 05:00:00 22.5 12 Sudeste 25 Sudeste 0 924.1 -- 74
2020-08-24 04:00:00 22.7 13 Sudeste 29 Sudeste 0 924.5 -- 74
2020-08-24 03:00:00 23.3 15 Sudeste 31 Sudeste 0 924.6 -- 71
2020-08-24 02:00:00 24.2 16 Sudeste 32 Sudeste 0 924.8 -- 66
2020-08-24 01:00:00 25.4 10 Sudeste 19 Este 0 924.8 -- 40
2020-08-24 00:00:00 26 5 Norte 10 Norte 0 924.8 -- 17
2020-08-23 23:00:00 26.6 6 Norte 10 Norte 0 924.8 -- 16
2020-08-23 22:00:00 27.7 4 Norte 11 Noroeste 0 924.6 -- 15
2020-08-23 21:00:00 29.8 6 Noroeste 18 Noroeste 0 924.6 -- 14
2020-08-23 20:00:00 31.3 8 Noroeste 22 Noroeste 0 924.5 -- 14
2020-08-23 19:00:00 32.9 8 Noroeste 25 Norte 0 924.8 -- 14
2020-08-23 18:00:00 34.2 7 Oeste 30 Noroeste 0 925 -- 14
2020-08-23 17:00:00 34.3 5 Oeste 23 Noroeste 0 925.5 -- 13
2020-08-23 16:00:00 33.8 12 Sudoeste 25 Sudoeste 0 926.1 -- 14
2020-08-23 15:00:00 32.8 9 Sur 24 Sur 0 926.8 -- 17
2020-08-23 14:00:00 31.7 12 Sudoeste 22 Sudoeste 0 927.1 -- 23
2020-08-23 13:00:00 29.3 4 Este 18 Este 0 927.8 -- 31
2020-08-23 12:00:00 27.3 6 Este 22 Sudeste 0 928.1 -- 40
2020-08-23 11:00:00 25.3 9 Sudeste 23 Sudeste 0 928.2 -- 47
2020-08-23 10:00:00 22.3 5 Nordeste 10 Este 0 928.4 -- 50
2020-08-23 09:00:00 20.1 4 Noroeste 12 Noroeste 0 928.2 -- 40
2020-08-23 08:00:00 19.6 4 Nordeste 9 Este 0 927.8 -- 49
2020-08-23 07:00:00 18.8 5 Norte 10 Este 0 927.5 -- 41
2020-08-23 06:00:00 21.6 5 Este 13 Este 0 927.1 -- 32
2020-08-23 05:00:00 21.6 5 Nordeste 13 Norte 0 927.4 -- 29
2020-08-23 04:00:00 22.8 4 Este 11 Este 0 927.5 -- 23
2020-08-23 03:00:00 22.1 3 Norte 10 Norte 0 927.9 -- 21
2020-08-23 02:00:00 22.9 4 Norte 12 Norte 0 927.9 -- 17
2020-08-23 01:00:00 24.4 5 Noroeste 10 Oeste 0 927.8 -- 14
2020-08-23 00:00:00 25.3 0 Calma 4 Noroeste 0 927.8 -- 15
2020-08-22 23:00:00 26.3 0 Calma 6 Noroeste 0 927.6 -- 16
2020-08-22 22:00:00 27.4 0 Calma 10 Noroeste 0 927.3 -- 14
2020-08-22 21:00:00 29.7 6 Noroeste 20 Noroeste 0 927.1 -- 14
2020-08-22 20:00:00 31.4 8 Noroeste 26 Noroeste 0 926.9 -- 15
2020-08-22 19:00:00 32.7 10 Oeste 22 Oeste 0 927.1 -- 14
2020-08-22 18:00:00 34 8 Noroeste 34 Oeste 0 927.3 -- 12
2020-08-22 17:00:00 33.8 10 Noroeste 33 Sudoeste 0 927.6 -- 15
2020-08-22 16:00:00 33 11 Noroeste 33 Oeste 0 928.1 -- 20
2020-08-22 15:00:00 32.1 13 Sudoeste 27 Sudoeste 0 928.5 -- 23
2020-08-22 14:00:00 30.6 10 Oeste 23 Oeste 0 928.7 -- 27
2020-08-22 13:00:00 28.9 9 Sudoeste 22 Sudoeste 0 929.1 -- 30
2020-08-22 12:00:00 26 6 Noroeste 15 Noroeste 0 929.2 -- 43
2020-08-22 11:00:00 24.3 4 Noroeste 12 Noroeste 0 928.9 -- 47
2020-08-22 10:00:00 22.2 4 Norte 9 Noroeste 0 928.7 -- 54
2020-08-22 09:00:00 20.7 3 Oeste 8 Oeste 0 928.4 -- 56
2020-08-22 08:00:00 20.1 4 Norte 8 Norte 0 927.8 -- 65
2020-08-22 07:00:00 20.1 3 Noroeste 12 Sudoeste 0 927.3 -- 64
2020-08-22 06:00:00 20.5 6 Sudoeste 12 Sudoeste 0 926.8 -- 62
2020-08-22 05:00:00 21.2 6 Sudoeste 9 Sudoeste 0 926.8 -- 58
2020-08-22 04:00:00 22.2 2 Sur 10 Oeste 0 926.7 -- 54
2020-08-22 03:00:00 22.7 7 Oeste 11 Oeste 0 926.7 -- 51
2020-08-22 02:00:00 24.2 3 Noroeste 15 Noroeste 0 926.6 -- 49
2020-08-22 01:00:00 24.7 7 Noroeste 26 Noroeste 0 926 -- 50
2020-08-22 00:00:00 25.8 11 Noroeste 28 Noroeste 0 925.6 -- 48
2020-08-21 23:00:00 26.8 14 Oeste 33 Oeste 0 925.6 -- 43
2020-08-21 22:00:00 28 9 Oeste 27 Oeste 0 925 -- 34
2020-08-21 21:00:00 30 9 Oeste 35 Oeste 0 924.1 -- 27
2020-08-21 20:00:00 31.6 19 Oeste 39 Sudoeste 0 923.4 -- 20
2020-08-21 19:00:00 33.3 23 Oeste 42 Sudoeste 0 923.2 -- 15
2020-08-21 18:00:00 34.6 14 Oeste 40 Sudoeste 0 923.2 -- 18
2020-08-21 17:00:00 35.2 9 Sudoeste 37 Oeste 0 923.3 -- 14
2020-08-21 16:00:00 33.9 13 Oeste 29 Oeste 0 923.8 -- 17
2020-08-21 15:00:00 32.5 13 Sudoeste 30 Oeste 0 924.1 -- 18
2020-08-21 14:00:00 30.5 14 Sudoeste 31 Sudoeste 0 924.2 -- 23
2020-08-21 13:00:00 29 12 Sudoeste 22 Oeste 0 924.4 -- 30
2020-08-21 12:00:00 26.7 5 Sudoeste 18 Oeste 0 924.1 -- 42
2020-08-21 11:00:00 24.7 3 Noroeste 16 Noroeste 0 923.8 -- 51
2020-08-21 10:00:00 23.2 4 Noroeste 13 Oeste 0 923.5 -- 57
2020-08-21 09:00:00 21.5 4 Sudeste 10 Sudeste 0 922.9 -- 54
2020-08-21 08:00:00 19.6 6 Sudeste 9 Sudeste 0 922.2 -- 51
2020-08-21 07:00:00 20.1 4 Sudeste 12 Sudoeste 0 921.8 -- 43
2020-08-21 06:00:00 20.2 5 Sudeste 10 Sudeste 0 921.5 -- 39
2020-08-21 05:00:00 21.5 5 Sur 9 Sudoeste 0 921.3 -- 36
2020-08-21 04:00:00 22.4 7 Sudoeste 12 Oeste 0 921.1 -- 28
2020-08-21 03:00:00 23.2 4 Sudoeste 12 Sudoeste 0 921 -- 21
2020-08-21 02:00:00 23.1 4 Sudoeste 12 Sudeste 0 920.8 -- 17
2020-08-21 01:00:00 24.6 9 Sudeste 13 Sudeste 0 920.3 -- 14
2020-08-21 00:00:00 26.1 4 Norte 15 Oeste 0 919.6 -- 12
2020-08-20 23:00:00 27 7 Oeste 21 Oeste 0 918.9 -- 12
2020-08-20 22:00:00 28.6 10 Oeste 22 Oeste 0 918.2 -- 11
2020-08-20 21:00:00 30 8 Sudoeste 16 Sudoeste 0 917.5 -- 13
2020-08-20 20:00:00 32.7 15 Sudoeste 31 Sudoeste 0 917.4 -- 12
2020-08-20 19:00:00 34.1 18 Sudoeste 38 Sudoeste 0 917.5 -- 11
2020-08-20 18:00:00 34.5 15 Sudoeste 37 Sudoeste 0 917.7 -- 11
2020-08-20 17:00:00 35.2 14 Sur 41 Sudoeste 0 918 -- 12
2020-08-20 16:00:00 33.6 12 Sudoeste 39 Sudoeste 0 918.5 -- 12
2020-08-20 15:00:00 33.6 14 Sudoeste 30 Sudoeste 0 918.9 -- 13
2020-08-20 14:00:00 32.3 13 Sur 29 Sudoeste 0 919.2 -- 14
2020-08-20 13:00:00 31.2 12 Sur 22 Sudeste 0 919.4 -- 13
2020-08-20 12:00:00 28.6 7 Sudeste 15 Sudeste 0 919.8 -- 18
2020-08-20 11:00:00 25.7 4 Sur 11 Este 0 919.5 -- 24
2020-08-20 10:00:00 23.4 7 Sudeste 14 Sur 0 919.3 -- 31
2020-08-20 09:00:00 21.1 6 Sudeste 12 Sudeste 0 919 -- 36
2020-08-20 08:00:00 19.4 3 Sudeste 8 Sur 0 918.7 -- 38
2020-08-20 07:00:00 19.7 7 Sudeste 14 Sudeste 0 918.4 -- 32
2020-08-20 06:00:00 20.8 4 Sur 11 Sudoeste 0 918.3 -- 29
2020-08-20 05:00:00 21.2 3 Sur 8 Sudeste 0 918.3 -- 30
2020-08-20 04:00:00 21.9 5 Sudeste 8 Sudeste 0 918 -- 27
2020-08-20 03:00:00 22.4 4 Sudeste 9 Sudeste 0 918 -- 27
2020-08-20 02:00:00 23.6 2 Sudeste 4 Sudeste 0 918.1 -- 26
2020-08-20 01:00:00 24.6 0 Calma 6 Norte 0 918 -- 21
2020-08-20 00:00:00 25.4 2 Nordeste 15 Oeste 0 918.1 -- 20
2020-08-19 23:00:00 26.5 7 Oeste 17 Oeste 0 917.9 -- 17
2020-08-19 22:00:00 27.7 8 Oeste 18 Noroeste 0 917.6 -- 16
2020-08-19 21:00:00 30 7 Oeste 26 Oeste 0 917.2 -- 22
2020-08-19 20:00:00 31.8 13 Oeste 38 Sudoeste 0 917.1 -- 20
2020-08-19 19:00:00 33.4 10 Sudoeste 35 Sudoeste 0 917.3 -- 18
2020-08-19 18:00:00 33.6 9 Oeste 40 Sudoeste 0 917.7 -- 19
2020-08-19 17:00:00 34.2 15 Sudoeste 40 Sudoeste 0 918.4 -- 18
2020-08-19 16:00:00 33.3 16 Sudoeste 37 Sudoeste 0 919 -- 20
2020-08-19 15:00:00 32.5 14 Oeste 36 Sudoeste 0 919.5 -- 21
2020-08-19 14:00:00 30.7 9 Sudoeste 29 Sudoeste 0 920 -- 25
2020-08-19 13:00:00 28.9 6 Sur 22 Sudoeste 0 920.7 -- 29
2020-08-19 12:00:00 26.9 5 Sur 17 Oeste 0 920.9 -- 33
2020-08-19 11:00:00 24.6 5 Sudoeste 14 Sur 0 921 -- 39
2020-08-19 10:00:00 22.8 8 Sudoeste 14 Sudoeste 0 921 -- 44
2020-08-19 09:00:00 20.7 7 Sudeste 16 Sudeste 0 920.9 -- 56
2020-08-19 08:00:00 19 10 Sudeste 14 Sudeste 0 920.8 -- 60
2020-08-19 07:00:00 19.4 10 Sudeste 13 Sudeste 0 920.8 -- 54
2020-08-19 06:00:00 19.7 9 Sudeste 15 Sudeste 0 920.9 -- 52
2020-08-19 05:00:00 20.8 5 Sudeste 10 Sudeste 0 921.2 -- 49
2020-08-19 04:00:00 21.3 5 Sudoeste 10 Sudoeste 0 921.4 -- 49
2020-08-19 03:00:00 22 4 Sudoeste 9 Sudoeste 0 921.9 -- 45
2020-08-19 02:00:00 22.9 4 Sudoeste 9 Oeste 0 922.2 -- 43
2020-08-19 01:00:00 23.9 4 Oeste 10 Oeste 0 922.4 -- 39
2020-08-19 00:00:00 24.4 6 Oeste 8 Oeste 0 922.5 -- 38